sensor_id;sensor_type;location;lat;lon;timestamp;pressure;altitude;pressure_sealevel;temperature;humidity
5298;BME280;14738;42.668;23.250;2022-09-27T00:00:58;48394.28;;;-141.90;100.00
5298;BME280;14738;42.668;23.250;2022-09-27T00:03:23;48416.09;;;-141.90;100.00
5298;BME280;14738;42.668;23.250;2022-09-27T00:06:10;48408.16;;;-141.90;100.00
5298;BME280;14738;42.668;23.250;2022-09-27T00:08:37;48408.16;;;-141.90;100.00
5298;BME280;14738;42.668;23.250;2022-09-27T00:11:06;48342.66;;;-141.90;100.00
5298;BME280;14738;42.668;23.250;2022-09-27T00:13:33;48362.50;;;-141.90;100.00
5298;BME280;14738;42.668;23.250;2022-09-27T00:16:00;48386.34;;;-141.90;100.00
5298;BME280;14738;42.668;23.250;2022-09-27T00:18:27;48392.28;;;-141.90;100.00
5298;BME280;14738;42.668;23.250;2022-09-27T00:20:52;48396.25;;;-141.90;100.00
5298;BME280;14738;42.668;23.250;2022-09-27T00:23:18;48402.22;;;-141.90;100.00
5298;BME280;14738;42.668;23.250;2022-09-27T00:25:54;48376.41;;;-141.90;100.00
5298;BME280;14738;42.668;23.250;2022-09-27T00:28:20;48420.09;;;-141.90;100.00
5298;BME280;14738;42.668;23.250;2022-09-27T00:30:46;48396.25;;;-141.90;100.00
5298;BME280;14738;42.668;23.250;2022-09-27T00:33:11;48406.19;;;-141.90;100.00
5298;BME280;14738;42.668;23.250;2022-09-27T00:35:37;48392.28;;;-141.90;100.00
5298;BME280;14738;42.668;23.250;2022-09-27T00:38:02;48402.22;;;-141.90;100.00
5298;BME280;14738;42.668;23.250;2022-09-27T00:40:28;48386.34;;;-141.90;100.00
5298;BME280;14738;42.668;23.250;2022-09-27T00:42:53;48414.13;;;-141.90;100.00
5298;BME280;14738;42.668;23.250;2022-09-27T00:45:19;48384.34;;;-141.90;100.00
5298;BME280;14738;42.668;23.250;2022-09-27T00:47:53;48406.19;;;-141.90;100.00
5298;BME280;14738;42.668;23.250;2022-09-27T00:50:50;48414.13;;;-141.90;100.00
5298;BME280;14738;42.668;23.250;2022-09-27T00:56:03;48388.31;;;-141.90;100.00
5298;BME280;14738;42.668;23.250;2022-09-27T00:58:35;48382.34;;;-141.90;100.00
5298;BME280;14738;42.668;23.250;2022-09-27T01:01:04;48402.22;;;-141.90;100.00
5298;BME280;14738;42.668;23.250;2022-09-27T01:05:58;48418.09;;;-141.90;100.00
5298;BME280;14738;42.668;23.250;2022-09-27T01:08:24;48394.28;;;-141.90;100.00
5298;BME280;14738;42.668;23.250;2022-09-27T01:16:47;48404.19;;;-141.90;100.00
5298;BME280;14738;42.668;23.250;2022-09-27T01:22:00;48398.25;;;-141.90;100.00
5298;BME280;14738;42.668;23.250;2022-09-27T01:24:50;48396.25;;;-141.90;100.00
5298;BME280;14738;42.668;23.250;2022-09-27T01:30:28;48426.03;;;-141.90;100.00
5298;BME280;14738;42.668;23.250;2022-09-27T01:33:07;48406.19;;;-141.90;100.00
5298;BME280;14738;42.668;23.250;2022-09-27T01:35:45;48396.25;;;-141.90;100.00
5298;BME280;14738;42.668;23.250;2022-09-27T01:41:25;48390.31;;;-141.90;100.00
5298;BME280;14738;42.668;23.250;2022-09-27T01:44:08;48394.28;;;-141.90;100.00
5298;BME280;14738;42.668;23.250;2022-09-27T01:46:48;48416.09;;;-141.90;100.00
5298;BME280;14738;42.668;23.250;2022-09-27T01:49:25;48410.16;;;-141.90;100.00
5298;BME280;14738;42.668;23.250;2022-09-27T01:51:56;48410.16;;;-141.90;100.00
5298;BME280;14738;42.668;23.250;2022-09-27T01:54:29;48426.03;;;-141.90;100.00
5298;BME280;14738;42.668;23.250;2022-09-27T01:56:57;48378.38;;;-141.90;100.00
5298;BME280;14738;42.668;23.250;2022-09-27T02:01:57;48410.16;;;-141.90;100.00
5298;BME280;14738;42.668;23.250;2022-09-27T02:04:27;48418.09;;;-141.90;100.00
5298;BME280;14738;42.668;23.250;2022-09-27T02:07:00;48410.16;;;-141.90;100.00
5298;BME280;14738;42.668;23.250;2022-09-27T02:09:31;48418.09;;;-141.90;100.00
5298;BME280;14738;42.668;23.250;2022-09-27T02:12:01;48433.97;;;-141.90;100.00
5298;BME280;14738;42.668;23.250;2022-09-27T02:14:54;48404.19;;;-141.90;100.00
5298;BME280;14738;42.668;23.250;2022-09-27T02:23:22;48422.06;;;-141.90;100.00
5298;BME280;14738;42.668;23.250;2022-09-27T02:25:55;48437.94;;;-141.90;100.00
5298;BME280;14738;42.668;23.250;2022-09-27T02:29:03;48416.09;;;-141.90;100.00
5298;BME280;14738;42.668;23.250;2022-09-27T02:31:30;48418.09;;;-141.90;100.00
5298;BME280;14738;42.668;23.250;2022-09-27T02:33:59;48422.06;;;-141.90;100.00
5298;BME280;14738;42.668;23.250;2022-09-27T02:36:27;48418.09;;;-141.90;100.00
5298;BME280;14738;42.668;23.250;2022-09-27T02:38:53;48422.06;;;-141.90;100.00
5298;BME280;14738;42.668;23.250;2022-09-27T02:41:20;48408.16;;;-141.90;100.00
5298;BME280;14738;42.668;23.250;2022-09-27T02:43:59;48406.19;;;-141.90;100.00
5298;BME280;14738;42.668;23.250;2022-09-27T02:49:39;48414.13;;;-141.90;100.00
5298;BME280;14738;42.668;23.250;2022-09-27T02:58:05;48384.34;;;-141.90;100.00
5298;BME280;14738;42.668;23.250;2022-09-27T03:00:40;48422.06;;;-141.90;100.00
5298;BME280;14738;42.668;23.250;2022-09-27T03:03:19;48433.97;;;-141.90;100.00
5298;BME280;14738;42.668;23.250;2022-09-27T03:06:13;48422.06;;;-141.90;100.00
5298;BME280;14738;42.668;23.250;2022-09-27T03:08:42;48378.38;;;-141.90;100.00
5298;BME280;14738;42.668;23.250;2022-09-27T03:11:08;48400.22;;;-141.90;100.00
5298;BME280;14738;42.668;23.250;2022-09-27T03:13:33;48430.00;;;-141.90;100.00
5298;BME280;14738;42.668;23.250;2022-09-27T03:16:03;48410.16;;;-141.90;100.00
5298;BME280;14738;42.668;23.250;2022-09-27T03:18:29;48384.34;;;-141.90;100.00
5298;BME280;14738;42.668;23.250;2022-09-27T03:20:54;48430.00;;;-141.90;100.00
5298;BME280;14738;42.668;23.250;2022-09-27T03:23:20;48433.97;;;-141.90;100.00
5298;BME280;14738;42.668;23.250;2022-09-27T03:25:45;48432.00;;;-141.90;100.00
5298;BME280;14738;42.668;23.250;2022-09-27T03:28:11;48406.19;;;-141.90;100.00
5298;BME280;14738;42.668;23.250;2022-09-27T03:30:36;48422.06;;;-141.90;100.00
5298;BME280;14738;42.668;23.250;2022-09-27T03:33:03;48422.06;;;-141.90;100.00
5298;BME280;14738;42.668;23.250;2022-09-27T03:35:29;48406.19;;;-141.90;100.00
5298;BME280;14738;42.668;23.250;2022-09-27T03:37:54;48424.06;;;-141.90;100.00
5298;BME280;14738;42.668;23.250;2022-09-27T03:40:20;48447.88;;;-141.90;100.00
5298;BME280;14738;42.668;23.250;2022-09-27T03:42:45;48306.91;;;-141.90;100.00
5298;BME280;14738;42.668;23.250;2022-09-27T03:45:11;48443.91;;;-141.90;100.00
5298;BME280;14738;42.668;23.250;2022-09-27T03:47:40;48414.13;;;-141.90;100.00
5298;BME280;14738;42.668;23.250;2022-09-27T03:50:07;48433.97;;;-141.90;100.00
5298;BME280;14738;42.668;23.250;2022-09-27T03:52:33;48398.25;;;-141.90;100.00
5298;BME280;14738;42.668;23.250;2022-09-27T03:54:59;48406.19;;;-141.90;100.00
5298;BME280;14738;42.668;23.250;2022-09-27T03:57:24;48418.09;;;-141.90;100.00
5298;BME280;14738;42.668;23.250;2022-09-27T03:59:50;48414.13;;;-141.90;100.00
5298;BME280;14738;42.668;23.250;2022-09-27T04:02:16;48412.13;;;-141.90;100.00
5298;BME280;14738;42.668;23.250;2022-09-27T04:04:41;48426.03;;;-141.90;100.00
5298;BME280;14738;42.668;23.250;2022-09-27T04:07:07;48386.34;;;-141.90;100.00
5298;BME280;14738;42.668;23.250;2022-09-27T04:09:35;48418.09;;;-141.90;100.00
5298;BME280;14738;42.668;23.250;2022-09-27T04:12:03;48422.06;;;-141.90;100.00
5298;BME280;14738;42.668;23.250;2022-09-27T04:14:29;48430.00;;;-141.90;100.00
5298;BME280;14738;42.668;23.250;2022-09-27T04:16:54;48390.31;;;-141.90;100.00
5298;BME280;14738;42.668;23.250;2022-09-27T04:19:20;48430.00;;;-141.90;100.00
5298;BME280;14738;42.668;23.250;2022-09-27T04:21:45;48418.09;;;-141.90;100.00
5298;BME280;14738;42.668;23.250;2022-09-27T04:24:12;48441.91;;;-141.90;100.00
5298;BME280;14738;42.668;23.250;2022-09-27T04:26:37;48435.97;;;-141.90;100.00
5298;BME280;14738;42.668;23.250;2022-09-27T04:29:04;48416.09;;;-141.90;100.00
5298;BME280;14738;42.668;23.250;2022-09-27T04:31:30;48435.97;;;-141.90;100.00
5298;BME280;14738;42.668;23.250;2022-09-27T04:36:29;48449.84;;;-141.90;100.00
5298;BME280;14738;42.668;23.250;2022-09-27T04:38:56;48433.97;;;-141.90;100.00
5298;BME280;14738;42.668;23.250;2022-09-27T04:41:23;48430.00;;;-141.90;100.00
5298;BME280;14738;42.668;23.250;2022-09-27T04:43:50;48453.81;;;-141.90;100.00
5298;BME280;14738;42.668;23.250;2022-09-27T04:46:16;48430.00;;;-141.90;100.00
5298;BME280;14738;42.668;23.250;2022-09-27T04:48:42;48432.00;;;-141.90;100.00
5298;BME280;14738;42.668;23.250;2022-09-27T04:51:08;48443.91;;;-141.90;100.00
5298;BME280;14738;42.668;23.250;2022-09-27T04:53:34;48396.25;;;-141.90;100.00
5298;BME280;14738;42.668;23.250;2022-09-27T04:56:00;48426.03;;;-141.90;100.00
5298;BME280;14738;42.668;23.250;2022-09-27T04:58:30;48422.06;;;-141.90;100.00
5298;BME280;14738;42.668;23.250;2022-09-27T05:00:57;48465.75;;;-141.90;100.00
5298;BME280;14738;42.668;23.250;2022-09-27T05:03:23;48416.09;;;-141.90;100.00
5298;BME280;14738;42.668;23.250;2022-09-27T05:05:49;48441.91;;;-141.90;100.00
5298;BME280;14738;42.668;23.250;2022-09-27T05:08:14;48424.06;;;-141.90;100.00
5298;BME280;14738;42.668;23.250;2022-09-27T05:10:40;48432.00;;;-141.90;100.00
5298;BME280;14738;42.668;23.250;2022-09-27T05:13:05;48437.94;;;-141.90;100.00
5298;BME280;14738;42.668;23.250;2022-09-27T05:15:31;48398.25;;;-141.90;100.00
5298;BME280;14738;42.668;23.250;2022-09-27T05:17:57;48433.97;;;-141.90;100.00
5298;BME280;14738;42.668;23.250;2022-09-27T05:20:23;48430.00;;;-141.90;100.00
5298;BME280;14738;42.668;23.250;2022-09-27T05:22:50;48408.16;;;-141.90;100.00
5298;BME280;14738;42.668;23.250;2022-09-27T05:25:16;48400.22;;;-141.90;100.00
5298;BME280;14738;42.668;23.250;2022-09-27T05:27:42;48439.94;;;-141.90;100.00
5298;BME280;14738;42.668;23.250;2022-09-27T05:30:08;48428.03;;;-141.90;100.00
5298;BME280;14738;42.668;23.250;2022-09-27T05:32:34;48426.03;;;-141.90;100.00
5298;BME280;14738;42.668;23.250;2022-09-27T05:34:59;48420.09;;;-141.90;100.00
5298;BME280;14738;42.668;23.250;2022-09-27T05:37:25;48426.03;;;-141.90;100.00
5298;BME280;14738;42.668;23.250;2022-09-27T05:39:50;48428.03;;;-141.90;100.00
5298;BME280;14738;42.668;23.250;2022-09-27T05:42:16;48424.06;;;-141.90;100.00
5298;BME280;14738;42.668;23.250;2022-09-27T05:44:43;48433.97;;;-141.90;100.00
5298;BME280;14738;42.668;23.250;2022-09-27T05:47:12;48422.06;;;-141.90;100.00
5298;BME280;14738;42.668;23.250;2022-09-27T05:49:37;48422.06;;;-141.90;100.00
5298;BME280;14738;42.668;23.250;2022-09-27T05:52:05;48430.00;;;-141.90;100.00
5298;BME280;14738;42.668;23.250;2022-09-27T05:54:30;48412.13;;;-141.90;100.00
5298;BME280;14738;42.668;23.250;2022-09-27T05:56:56;48433.97;;;-141.90;100.00
5298;BME280;14738;42.668;23.250;2022-09-27T05:59:23;48390.31;;;-141.90;100.00
5298;BME280;14738;42.668;23.250;2022-09-27T06:01:50;48430.00;;;-141.90;100.00
5298;BME280;14738;42.668;23.250;2022-09-27T06:04:17;48433.97;;;-141.90;100.00
5298;BME280;14738;42.668;23.250;2022-09-27T06:06:43;48445.88;;;-141.90;100.00
5298;BME280;14738;42.668;23.250;2022-09-27T06:09:12;48432.00;;;-141.90;100.00
5298;BME280;14738;42.668;23.250;2022-09-27T06:11:38;48402.22;;;-141.90;100.00
5298;BME280;14738;42.668;23.250;2022-09-27T06:14:03;48412.13;;;-141.90;100.00
5298;BME280;14738;42.668;23.250;2022-09-27T06:16:29;48414.13;;;-141.90;100.00
5298;BME280;14738;42.668;23.250;2022-09-27T06:18:54;48443.91;;;-141.90;100.00
5298;BME280;14738;42.668;23.250;2022-09-27T06:21:20;48430.00;;;-141.90;100.00
5298;BME280;14738;42.668;23.250;2022-09-27T06:23:47;48437.94;;;-141.90;100.00
5298;BME280;14738;42.668;23.250;2022-09-27T06:26:13;48433.97;;;-141.90;100.00
5298;BME280;14738;42.668;23.250;2022-09-27T06:28:39;48457.81;;;-141.90;100.00
5298;BME280;14738;42.668;23.250;2022-09-27T06:31:05;48455.81;;;-141.90;100.00
5298;BME280;14738;42.668;23.250;2022-09-27T06:33:36;48457.81;;;-141.90;100.00
5298;BME280;14738;42.668;23.250;2022-09-27T06:36:05;48433.97;;;-141.90;100.00
5298;BME280;14738;42.668;23.250;2022-09-27T06:38:31;48437.94;;;-141.90;100.00
5298;BME280;14738;42.668;23.250;2022-09-27T06:41:00;48449.84;;;-141.90;100.00
5298;BME280;14738;42.668;23.250;2022-09-27T06:43:26;48445.88;;;-141.90;100.00
5298;BME280;14738;42.668;23.250;2022-09-27T06:48:17;48433.97;;;-141.90;100.00
5298;BME280;14738;42.668;23.250;2022-09-27T06:50:44;48461.78;;;-141.90;100.00
5298;BME280;14738;42.668;23.250;2022-09-27T06:53:12;48437.94;;;-141.90;100.00
5298;BME280;14738;42.668;23.250;2022-09-27T06:55:38;48433.97;;;-141.90;100.00
5298;BME280;14738;42.668;23.250;2022-09-27T06:58:04;48439.94;;;-141.90;100.00
5298;BME280;14738;42.668;23.250;2022-09-27T07:00:50;48441.91;;;-141.90;100.00
5298;BME280;14738;42.668;23.250;2022-09-27T07:03:16;48422.06;;;-141.90;100.00
5298;BME280;14738;42.668;23.250;2022-09-27T07:05:42;48443.91;;;-141.90;100.00
5298;BME280;14738;42.668;23.250;2022-09-27T07:08:09;48439.94;;;-141.90;100.00
5298;BME280;14738;42.668;23.250;2022-09-27T07:10:37;48449.84;;;-141.90;100.00
5298;BME280;14738;42.668;23.250;2022-09-27T07:13:04;48465.75;;;-141.90;100.00
5298;BME280;14738;42.668;23.250;2022-09-27T07:15:30;48447.88;;;-141.90;100.00
5298;BME280;14738;42.668;23.250;2022-09-27T07:18:00;48453.81;;;-141.90;100.00
5298;BME280;14738;42.668;23.250;2022-09-27T07:20:25;48449.84;;;-141.90;100.00
5298;BME280;14738;42.668;23.250;2022-09-27T07:22:51;48430.00;;;-141.90;100.00
5298;BME280;14738;42.668;23.250;2022-09-27T07:25:17;48447.88;;;-141.90;100.00
5298;BME280;14738;42.668;23.250;2022-09-27T07:27:43;48439.94;;;-141.90;100.00
5298;BME280;14738;42.668;23.250;2022-09-27T07:30:10;48465.75;;;-141.90;100.00
5298;BME280;14738;42.668;23.250;2022-09-27T07:32:36;48459.78;;;-141.90;100.00
5298;BME280;14738;42.668;23.250;2022-09-27T07:35:06;48435.97;;;-141.90;100.00
5298;BME280;14738;42.668;23.250;2022-09-27T07:37:33;48445.88;;;-141.90;100.00
5298;BME280;14738;42.668;23.250;2022-09-27T07:40:00;48453.81;;;-141.90;100.00
5298;BME280;14738;42.668;23.250;2022-09-27T07:42:26;48445.88;;;-141.90;100.00
5298;BME280;14738;42.668;23.250;2022-09-27T07:44:56;48430.00;;;-141.90;100.00
5298;BME280;14738;42.668;23.250;2022-09-27T07:47:22;48453.81;;;-141.90;100.00
5298;BME280;14738;42.668;23.250;2022-09-27T07:49:49;48433.97;;;-141.90;100.00
5298;BME280;14738;42.668;23.250;2022-09-27T07:52:16;48441.91;;;-141.90;100.00
5298;BME280;14738;42.668;23.250;2022-09-27T07:54:41;48469.72;;;-141.90;100.00
5298;BME280;14738;42.668;23.250;2022-09-27T07:57:07;48437.94;;;-141.90;100.00
5298;BME280;14738;42.668;23.250;2022-09-27T07:59:33;48449.84;;;-141.90;100.00
5298;BME280;14738;42.668;23.250;2022-09-27T08:01:58;48449.84;;;-141.90;100.00
5298;BME280;14738;42.668;23.250;2022-09-27T08:04:24;48430.00;;;-141.90;100.00
5298;BME280;14738;42.668;23.250;2022-09-27T08:06:49;48422.06;;;-141.90;100.00
5298;BME280;14738;42.668;23.250;2022-09-27T08:09:14;48495.53;;;-141.90;100.00
5298;BME280;14738;42.668;23.250;2022-09-27T08:11:40;48457.81;;;-141.90;100.00
5298;BME280;14738;42.668;23.250;2022-09-27T08:14:05;48457.81;;;-141.90;100.00
5298;BME280;14738;42.668;23.250;2022-09-27T08:16:34;48441.91;;;-141.90;100.00
5298;BME280;14738;42.668;23.250;2022-09-27T08:18:59;48467.72;;;-141.90;100.00
5298;BME280;14738;42.668;23.250;2022-09-27T08:21:25;48435.97;;;-141.90;100.00
5298;BME280;14738;42.668;23.250;2022-09-27T08:23:50;48449.84;;;-141.90;100.00
5298;BME280;14738;42.668;23.250;2022-09-27T08:26:16;48463.75;;;-141.90;100.00
5298;BME280;14738;42.668;23.250;2022-09-27T08:28:41;48473.69;;;-141.90;100.00
5298;BME280;14738;42.668;23.250;2022-09-27T08:31:06;48457.81;;;-141.90;100.00
5298;BME280;14738;42.668;23.250;2022-09-27T08:33:32;48461.78;;;-141.90;100.00
5298;BME280;14738;42.668;23.250;2022-09-27T08:35:58;48461.78;;;-141.90;100.00
5298;BME280;14738;42.668;23.250;2022-09-27T08:38:23;48430.00;;;-141.90;100.00
5298;BME280;14738;42.668;23.250;2022-09-27T08:40:54;48447.88;;;-141.90;100.00
5298;BME280;14738;42.668;23.250;2022-09-27T08:46:31;48445.88;;;-141.90;100.00
5298;BME280;14738;42.668;23.250;2022-09-27T08:49:21;48445.88;;;-141.90;100.00
5298;BME280;14738;42.668;23.250;2022-09-27T08:51:50;48453.81;;;-141.90;100.00
5298;BME280;14738;42.668;23.250;2022-09-27T08:54:29;48475.66;;;-141.90;100.00
5298;BME280;14738;42.668;23.250;2022-09-27T08:57:03;48501.47;;;-141.90;100.00
5298;BME280;14738;42.668;23.250;2022-09-27T09:00:11;48489.56;;;-141.90;100.00
5298;BME280;14738;42.668;23.250;2022-09-27T09:02:37;48453.81;;;-141.90;100.00
5298;BME280;14738;42.668;23.250;2022-09-27T09:05:08;48453.81;;;-141.90;100.00
5298;BME280;14738;42.668;23.250;2022-09-27T09:13:40;48463.75;;;-141.90;100.00
5298;BME280;14738;42.668;23.250;2022-09-27T09:33:08;48507.44;;;-141.90;100.00
5298;BME280;14738;42.668;23.250;2022-09-27T09:41:01;48503.47;;;-141.90;100.00
5298;BME280;14738;42.668;23.250;2022-09-27T09:46:17;48519.34;;;-141.90;100.00
5298;BME280;14738;42.668;23.250;2022-09-27T09:48:55;48521.34;;;-141.90;100.00
5298;BME280;14738;42.668;23.250;2022-09-27T09:51:34;48473.69;;;-141.90;100.00
5298;BME280;14738;42.668;23.250;2022-09-27T09:54:18;48487.56;;;-141.90;100.00
5298;BME280;14738;42.668;23.250;2022-09-27T09:56:49;48491.56;;;-141.90;100.00
5298;BME280;14738;42.668;23.250;2022-09-27T10:01:52;48509.41;;;-141.90;100.00
5298;BME280;14738;42.668;23.250;2022-09-27T10:04:23;48463.75;;;-141.90;100.00
5298;BME280;14738;42.668;23.250;2022-09-27T10:06:51;48475.66;;;-141.90;100.00
5298;BME280;14738;42.668;23.250;2022-09-27T10:09:22;48499.50;;;-141.90;100.00
5298;BME280;14738;42.668;23.250;2022-09-27T10:11:49;48469.72;;;-141.90;100.00
5298;BME280;14738;42.668;23.250;2022-09-27T10:14:18;48457.81;;;-141.90;100.00
5298;BME280;14738;42.668;23.250;2022-09-27T10:16:53;48515.38;;;-141.90;100.00
5298;BME280;14738;42.668;23.250;2022-09-27T10:19:24;48517.34;;;-141.90;100.00
5298;BME280;14738;42.668;23.250;2022-09-27T10:21:51;48525.31;;;-141.90;100.00
5298;BME280;14738;42.668;23.250;2022-09-27T10:24:17;48511.41;;;-141.90;100.00
5298;BME280;14738;42.668;23.250;2022-09-27T10:26:47;48499.50;;;-141.90;100.00
5298;BME280;14738;42.668;23.250;2022-09-27T10:29:32;48529.28;;;-141.90;100.00
5298;BME280;14738;42.668;23.250;2022-09-27T10:32:01;48477.66;;;-141.90;100.00
5298;BME280;14738;42.668;23.250;2022-09-27T10:34:39;48519.34;;;-141.90;100.00
5298;BME280;14738;42.668;23.250;2022-09-27T10:39:38;48509.41;;;-141.90;100.00
5298;BME280;14738;42.668;23.250;2022-09-27T10:42:29;48513.38;;;-141.90;100.00
5298;BME280;14738;42.668;23.250;2022-09-27T10:44:56;48525.31;;;-141.90;100.00
5298;BME280;14738;42.668;23.250;2022-09-27T10:47:23;48537.22;;;-141.90;100.00
5298;BME280;14738;42.668;23.250;2022-09-27T10:49:51;48513.38;;;-141.90;100.00
5298;BME280;14738;42.668;23.250;2022-09-27T10:52:18;48549.13;;;-141.90;100.00
5298;BME280;14738;42.668;23.250;2022-09-27T10:54:56;48525.31;;;-141.90;100.00
5298;BME280;14738;42.668;23.250;2022-09-27T10:57:25;48537.22;;;-141.90;100.00
5298;BME280;14738;42.668;23.250;2022-09-27T10:59:55;48549.13;;;-141.90;100.00
5298;BME280;14738;42.668;23.250;2022-09-27T11:07:27;48561.03;;;-141.90;100.00
5298;BME280;14738;42.668;23.250;2022-09-27T11:09:57;48549.13;;;-141.90;100.00
5298;BME280;14738;42.668;23.250;2022-09-27T11:12:29;48537.22;;;-141.90;100.00
5298;BME280;14738;42.668;23.250;2022-09-27T11:15:08;48580.88;;;-141.90;100.00
5298;BME280;14738;42.668;23.250;2022-09-27T11:41:33;48606.69;;;-141.90;100.00
5298;BME280;14738;42.668;23.250;2022-09-27T11:56:09;48588.84;;;-141.90;100.00
5298;BME280;14738;42.668;23.250;2022-09-27T11:59:02;48580.88;;;-141.90;100.00
5298;BME280;14738;42.668;23.250;2022-09-27T12:04:48;48606.69;;;-141.90;100.00
5298;BME280;14738;42.668;23.250;2022-09-27T12:07:24;48630.53;;;-141.90;100.00
5298;BME280;14738;42.668;23.250;2022-09-27T12:10:00;48620.59;;;-141.90;100.00
5298;BME280;14738;42.668;23.250;2022-09-27T12:12:32;48561.03;;;-141.90;100.00
5298;BME280;14738;42.668;23.250;2022-09-27T12:15:05;48608.69;;;-141.90;44.32
5298;BME280;14738;42.668;23.250;2022-09-27T12:17:37;48636.47;;;-141.90;42.78
5298;BME280;14738;42.668;23.250;2022-09-27T12:20:24;48632.50;;;-141.90;44.31
5298;BME280;14738;42.668;23.250;2022-09-27T12:25:22;48612.66;;;-141.90;44.59
5298;BME280;14738;42.668;23.250;2022-09-27T12:27:57;48632.50;;;-141.90;44.49
5298;BME280;14738;42.668;23.250;2022-09-27T12:30:26;48600.75;;;-141.90;43.00
5298;BME280;14738;42.668;23.250;2022-09-27T12:33:20;48642.44;;;-141.90;43.05
5298;BME280;14738;42.668;23.250;2022-09-27T12:35:53;48628.53;;;-141.90;43.59
5298;BME280;14738;42.668;23.250;2022-09-27T12:38:21;48634.50;;;-141.90;43.12
5298;BME280;14738;42.668;23.250;2022-09-27T12:40:54;48644.41;;;-141.90;43.08
5298;BME280;14738;42.668;23.250;2022-09-27T12:43:22;48608.69;;;-141.90;41.21
5298;BME280;14738;42.668;23.250;2022-09-27T12:46:11;48644.41;;;-141.90;43.33
5298;BME280;14738;42.668;23.250;2022-09-27T13:07:33;48622.59;;;-141.90;41.36
5298;BME280;14738;42.668;23.250;2022-09-27T13:12:29;48636.47;;;-141.90;41.01
5298;BME280;14738;42.668;23.250;2022-09-27T13:22:53;48616.63;;;-141.90;43.90
5298;BME280;14738;42.668;23.250;2022-09-27T13:31:08;48634.50;;;-141.90;42.87
5298;BME280;14738;42.668;23.250;2022-09-27T13:33:47;48584.84;;;-141.90;43.57
5298;BME280;14738;42.668;23.250;2022-09-27T13:46:33;48592.81;;;-141.90;43.25
5298;BME280;14738;42.668;23.250;2022-09-27T13:49:23;48590.81;;;-141.90;41.88
5298;BME280;14738;42.668;23.250;2022-09-27T13:52:01;48596.78;;;-141.90;44.67
5298;BME280;14738;42.668;23.250;2022-09-27T13:54:38;48594.78;;;-141.90;44.15
5298;BME280;14738;42.668;23.250;2022-09-27T13:57:36;48568.97;;;-141.90;44.40
5298;BME280;14738;42.668;23.250;2022-09-27T13:59:53;48596.78;;;-141.90;42.20
5298;BME280;14738;42.668;23.250;2022-09-27T14:02:28;48612.66;;;-141.90;41.09
5298;BME280;14738;42.668;23.250;2022-09-27T14:04:58;48584.84;;;-141.90;41.42
5298;BME280;14738;42.668;23.250;2022-09-27T14:07:33;48590.81;;;-141.90;41.92
5298;BME280;14738;42.668;23.250;2022-09-27T14:10:02;48596.78;;;-141.90;44.38
5298;BME280;14738;42.668;23.250;2022-09-27T14:12:35;48553.09;;;-141.90;44.38
5298;BME280;14738;42.668;23.250;2022-09-27T14:15:03;48608.69;;;-141.90;45.93
5298;BME280;14738;42.668;23.250;2022-09-27T14:17:29;48586.84;;;-141.90;44.86
5298;BME280;14738;42.668;23.250;2022-09-27T14:19:55;48553.09;;;-141.90;43.71
5298;BME280;14738;42.668;23.250;2022-09-27T14:22:22;48545.16;;;-141.90;45.33
5298;BME280;14738;42.668;23.250;2022-09-27T14:24:50;48600.75;;;-141.90;43.94
5298;BME280;14738;42.668;23.250;2022-09-27T14:27:26;48568.97;;;-141.90;44.89
5298;BME280;14738;42.668;23.250;2022-09-27T14:29:57;48592.81;;;-141.90;46.37
5298;BME280;14738;42.668;23.250;2022-09-27T14:32:29;48568.97;;;-141.90;45.63
5298;BME280;14738;42.668;23.250;2022-09-27T14:35:18;48608.69;;;-141.90;45.04
5298;BME280;14738;42.668;23.250;2022-09-27T14:38:08;48549.13;;;-141.90;45.01
5298;BME280;14738;42.668;23.250;2022-09-27T14:40:39;48563.03;;;-141.90;45.48
5298;BME280;14738;42.668;23.250;2022-09-27T14:43:14;48561.03;;;-141.90;43.95
5298;BME280;14738;42.668;23.250;2022-09-27T14:45:40;48565.00;;;-141.90;44.44
5298;BME280;14738;42.668;23.250;2022-09-27T14:48:36;48584.84;;;-141.90;45.44
5298;BME280;14738;42.668;23.250;2022-09-27T14:53:43;48567.00;;;-141.90;42.42
5298;BME280;14738;42.668;23.250;2022-09-27T14:56:14;48559.06;;;-141.90;43.27
5298;BME280;14738;42.668;23.250;2022-09-27T14:58:42;48568.97;;;-141.90;43.54
5298;BME280;14738;42.668;23.250;2022-09-27T15:01:18;48636.47;;;-141.90;43.40
5298;BME280;14738;42.668;23.250;2022-09-27T15:03:46;48533.25;;;-141.90;44.56
5298;BME280;14738;42.668;23.250;2022-09-27T15:06:16;48549.13;;;-141.90;60.24
5298;BME280;14738;42.668;23.250;2022-09-27T15:08:42;48485.59;;;-141.90;89.72
5298;BME280;14738;42.668;23.250;2022-09-27T15:11:11;48457.81;;;-141.90;100.00
5298;BME280;14738;42.668;23.250;2022-09-27T15:13:39;48449.84;;;-141.90;100.00
5298;BME280;14738;42.668;23.250;2022-09-27T15:16:13;48433.97;;;-141.90;100.00
5298;BME280;14738;42.668;23.250;2022-09-27T15:18:43;48433.97;;;-141.90;100.00
5298;BME280;14738;42.668;23.250;2022-09-27T15:21:13;48441.91;;;-141.90;100.00
5298;BME280;14738;42.668;23.250;2022-09-27T15:23:42;48447.88;;;-141.90;100.00
5298;BME280;14738;42.668;23.250;2022-09-27T15:29:05;48432.00;;;-141.90;100.00
5298;BME280;14738;42.668;23.250;2022-09-27T15:31:34;48439.94;;;-141.90;100.00
5298;BME280;14738;42.668;23.250;2022-09-27T15:34:01;48457.81;;;-141.90;100.00
5298;BME280;14738;42.668;23.250;2022-09-27T15:36:53;48437.94;;;-141.90;100.00
5298;BME280;14738;42.668;23.250;2022-09-27T15:42:58;48445.88;;;-141.90;100.00
5298;BME280;14738;42.668;23.250;2022-09-27T15:45:30;48433.97;;;-141.90;100.00
5298;BME280;14738;42.668;23.250;2022-09-27T15:50:33;48477.66;;;-141.90;100.00